Time;durP1;ratioP1;P1;durP2;ratioP2;P2;SDS_P1;SDS_P2;PMS_P1;PMS_P2;Temp;Humidity;BMP_temperature;BMP_pressure;BME280_temperature;BME280_humidity;BME280_pressure;Samples;Min_cycle;Max_cycle;Signal;HPM_P1;HPM_P2
2021/09/28 00:01:33;;;;;;;11.33;7.00;;;;;;;17.26;100.00;101323.75;5016289;28;21005;-72
2021/09/28 00:03:59;;;;;;;11.87;6.90;;;;;;;17.27;100.00;101330.06;5016746;28;20447;-72
2021/09/28 00:06:27;;;;;;;10.37;6.47;;;;;;;17.30;100.00;101334.88;5016626;28;20499;-71
2021/09/28 00:08:53;;;;;;;12.30;6.03;;;;;;;17.30;100.00;101335.66;5016629;28;20823;-72
2021/09/28 00:11:20;;;;;;;12.77;6.23;;;;;;;17.32;100.00;101333.41;5016514;28;20471;-73
2021/09/28 00:13:46;;;;;;;11.97;7.20;;;;;;;17.35;100.00;101345.63;5016569;28;20452;-73
2021/09/28 00:16:12;;;;;;;13.07;6.37;;;;;;;17.30;100.00;101330.19;5016508;28;20444;-73
2021/09/28 00:18:39;;;;;;;11.57;7.50;;;;;;;17.31;100.00;101336.47;5016438;28;20451;-72
2021/09/28 00:21:05;;;;;;;9.53;6.07;;;;;;;17.29;100.00;101334.06;5016170;28;20491;-72
2021/09/28 00:23:33;;;;;;;10.07;5.47;;;;;;;17.29;100.00;101338.75;5016320;28;20452;-72
2021/09/28 00:26:00;;;;;;;13.60;6.80;;;;;;;17.29;100.00;101342.28;5016345;28;20459;-72
2021/09/28 00:28:28;;;;;;;13.30;6.03;;;;;;;17.27;100.00;101344.56;5016265;28;20451;-72
2021/09/28 00:30:54;;;;;;;10.80;6.67;;;;;;;17.26;100.00;101339.38;5015881;28;20953;-72
2021/09/28 00:33:21;;;;;;;10.87;7.07;;;;;;;17.24;100.00;101353.41;5016077;28;20464;-72
2021/09/28 00:35:47;;;;;;;12.20;6.27;;;;;;;17.26;100.00;101361.28;5016123;28;20447;-72
2021/09/28 00:38:14;;;;;;;9.77;5.90;;;;;;;17.26;100.00;101358.56;5016114;28;20858;-72
2021/09/28 00:40:42;;;;;;;12.67;7.27;;;;;;;17.29;100.00;101361.44;5015251;28;20953;-72
2021/09/28 00:43:08;;;;;;;13.83;6.87;;;;;;;17.27;100.00;101362.94;5015925;28;20468;-72
2021/09/28 00:45:35;;;;;;;12.40;6.20;;;;;;;17.25;100.00;101359.69;5015900;28;20792;-72
2021/09/28 00:48:01;;;;;;;10.40;6.70;;;;;;;17.21;100.00;101365.00;5015925;28;20470;-72
2021/09/28 00:50:28;;;;;;;10.67;6.77;;;;;;;17.21;100.00;101364.22;5015869;28;20440;-72
2021/09/28 00:52:55;;;;;;;18.93;7.00;;;;;;;17.20;100.00;101368.09;5015738;28;20456;-72
2021/09/28 00:55:27;;;;;;;9.00;5.60;;;;;;;17.14;100.00;101375.69;5015776;28;20479;-72
2021/09/28 00:57:55;;;;;;;16.70;7.00;;;;;;;17.09;100.00;101376.66;5015457;28;20854;-72
2021/09/28 01:00:22;;;;;;;7.77;5.37;;;;;;;17.03;100.00;101360.72;5015522;28;20448;-72
2021/09/28 01:02:48;;;;;;;16.07;5.83;;;;;;;16.98;100.00;101374.56;5015533;28;20886;-72
2021/09/28 01:05:15;;;;;;;13.63;6.20;;;;;;;16.97;100.00;101370.25;5015613;28;20451;-72
2021/09/28 01:07:41;;;;;;;12.67;7.07;;;;;;;16.96;100.00;101385.88;5015516;28;20448;-72
2021/09/28 01:10:09;;;;;;;10.07;6.47;;;;;;;16.95;100.00;101377.94;5015560;28;20448;-72
2021/09/28 01:12:35;;;;;;;11.83;6.63;;;;;;;16.93;100.00;101375.56;5015350;28;20468;-72
2021/09/28 01:15:03;;;;;;;14.93;6.43;;;;;;;16.92;100.00;101376.69;5015423;28;20451;-72
2021/09/28 01:17:30;;;;;;;9.43;6.27;;;;;;;16.94;100.00;101374.41;5015354;28;20447;-72
2021/09/28 01:19:56;;;;;;;12.47;6.97;;;;;;;16.89;100.00;101380.06;5015062;28;20488;-71
2021/09/28 01:22:24;;;;;;;13.50;6.93;;;;;;;16.89;100.00;101380.88;5014785;28;20495;-71
2021/09/28 01:24:51;;;;;;;10.80;6.53;;;;;;;16.86;100.00;101380.69;5015258;28;20570;-71
2021/09/28 01:27:18;;;;;;;15.03;7.40;;;;;;;16.88;100.00;101384.75;5014903;28;20933;-71
2021/09/28 01:29:45;;;;;;;13.13;8.13;;;;;;;16.86;100.00;101378.75;5015118;28;20436;-71
2021/09/28 01:32:12;;;;;;;14.93;6.97;;;;;;;16.87;100.00;101382.34;5015039;28;20460;-71
2021/09/28 01:34:39;;;;;;;10.93;6.43;;;;;;;16.86;100.00;101386.19;5015007;28;20475;-72
2021/09/28 01:37:05;;;;;;;9.50;5.90;;;;;;;16.84;100.00;101389.25;5014990;28;20448;-71
2021/09/28 01:39:33;;;;;;;12.37;6.87;;;;;;;16.81;100.00;101383.59;5014955;28;20831;-71
2021/09/28 01:41:59;;;;;;;10.57;6.07;;;;;;;16.79;100.00;101392.16;5014561;28;20492;-72
2021/09/28 01:44:27;;;;;;;9.60;5.80;;;;;;;16.76;100.00;101387.31;5014816;28;20791;-72
2021/09/28 01:46:54;;;;;;;17.93;6.97;;;;;;;16.73;100.00;101398.91;5014717;28;20466;-71
2021/09/28 01:49:22;;;;;;;12.90;5.93;;;;;;;16.77;100.00;101393.59;5014470;28;20432;-71
2021/09/28 01:51:49;;;;;;;11.40;5.40;;;;;;;16.77;100.00;101399.88;5013821;28;20464;-72
2021/09/28 01:54:16;;;;;;;11.60;6.83;;;;;;;16.85;100.00;101401.00;5014670;28;20436;-71
2021/09/28 01:56:44;;;;;;;13.47;6.80;;;;;;;16.95;100.00;101399.84;5014610;28;20439;-72
2021/09/28 01:59:11;;;;;;;10.47;6.30;;;;;;;17.04;100.00;101397.91;5014579;28;20466;-71
2021/09/28 02:01:37;;;;;;;11.87;6.30;;;;;;;17.11;100.00;101399.03;5014034;28;21019;-71
2021/09/28 02:04:05;;;;;;;11.93;7.03;;;;;;;17.20;100.00;101395.47;5014444;28;20448;-71
2021/09/28 02:06:35;;;;;;;14.07;6.90;;;;;;;17.21;100.00;101392.41;5014380;28;20455;-72
2021/09/28 02:09:04;;;;;;;9.83;5.83;;;;;;;17.30;100.00;101398.66;5014303;28;20440;-72
2021/09/28 02:11:30;;;;;;;11.80;6.87;;;;;;;17.36;100.00;101400.09;5014240;28;20492;-71
2021/09/28 02:13:58;;;;;;;7.47;5.43;;;;;;;17.40;100.00;101395.59;5014349;28;20451;-71
2021/09/28 02:16:25;;;;;;;11.27;6.50;;;;;;;17.46;100.00;101400.88;5014351;28;20440;-71
2021/09/28 02:18:51;;;;;;;14.40;6.00;;;;;;;17.48;100.00;101401.34;5014024;28;20439;-73
2021/09/28 02:21:18;;;;;;;12.00;6.70;;;;;;;17.51;100.00;101401.50;5013888;28;20480;-72
2021/09/28 02:23:44;;;;;;;11.50;5.90;;;;;;;17.53;100.00;101396.50;5013885;28;20440;-73
2021/09/28 02:26:11;;;;;;;22.53;6.50;;;;;;;17.52;100.00;101389.41;5013867;28;20852;-73
2021/09/28 02:28:37;;;;;;;12.87;6.47;;;;;;;17.50;100.00;101396.34;5014043;28;20448;-73
2021/09/28 02:31:05;;;;;;;12.03;6.83;;;;;;;17.54;100.00;101400.03;5013944;28;20432;-73
2021/09/28 02:33:32;;;;;;;11.57;5.87;;;;;;;17.55;100.00;101405.19;5013978;28;20447;-74
2021/09/28 02:35:58;;;;;;;8.57;4.63;;;;;;;17.56;100.00;101404.03;5013956;28;20444;-73
2021/09/28 02:38:25;;;;;;;10.80;6.00;;;;;;;17.54;100.00;101409.06;5013911;28;20443;-73
2021/09/28 02:40:51;;;;;;;10.53;6.27;;;;;;;17.56;100.00;101408.72;5013526;28;21012;-73
2021/09/28 02:43:18;;;;;;;8.53;4.87;;;;;;;17.56;100.00;101416.94;5013556;28;20526;-74
2021/09/28 02:45:47;;;;;;;13.07;5.17;;;;;;;17.53;100.00;101415.69;5013799;28;20444;-73
2021/09/28 02:48:16;;;;;;;15.17;5.60;;;;;;;17.53;100.00;101415.69;5013756;28;20463;-74
2021/09/28 02:50:42;;;;;;;12.27;5.93;;;;;;;17.49;100.00;101416.66;5013765;28;20451;-73
2021/09/28 02:53:09;;;;;;;11.10;5.13;;;;;;;17.52;100.00;101421.47;5013337;28;20973;-73
2021/09/28 02:55:35;;;;;;;12.97;5.50;;;;;;;17.49;100.00;101419.41;5013645;28;20443;-73
2021/09/28 02:58:02;;;;;;;10.97;6.70;;;;;;;17.42;100.00;101425.38;5013646;28;20451;-73
2021/09/28 03:00:28;;;;;;;7.70;4.70;;;;;;;17.36;100.00;101421.22;5013654;28;20455;-73
2021/09/28 03:02:55;;;;;;;7.63;4.17;;;;;;;17.28;100.00;101433.78;5013320;28;20879;-73
2021/09/28 03:05:22;;;;;;;10.97;5.77;;;;;;;17.23;100.00;101428.47;5013595;28;20444;-73
2021/09/28 03:07:49;;;;;;;10.80;5.40;;;;;;;17.22;100.00;101426.88;5013548;28;20447;-73
2021/09/28 03:10:15;;;;;;;14.13;6.20;;;;;;;17.20;100.00;101431.88;5013549;28;20452;-73
2021/09/28 03:12:42;;;;;;;8.20;4.83;;;;;;;17.18;100.00;101430.56;5013443;28;20456;-73
2021/09/28 03:15:09;;;;;;;11.30;5.70;;;;;;;17.18;100.00;101438.78;5013489;28;20470;-72
2021/09/28 03:17:35;;;;;;;10.60;4.07;;;;;;;17.18;100.00;101447.00;5013164;28;20965;-72
2021/09/28 03:20:02;;;;;;;10.10;5.73;;;;;;;17.15;100.00;101443.00;5013432;28;20448;-73
2021/09/28 03:22:30;;;;;;;7.67;4.33;;;;;;;17.16;100.00;101441.84;5012808;28;20550;-73
2021/09/28 03:24:57;;;;;;;7.37;3.97;;;;;;;17.20;100.00;101442.81;5013035;28;20455;-72
2021/09/28 03:27:23;;;;;;;10.77;4.47;;;;;;;17.15;100.00;101432.84;5013359;28;20440;-73
2021/09/28 03:29:50;;;;;;;8.63;4.80;;;;;;;17.11;100.00;101442.81;5013293;28;20451;-73
2021/09/28 03:32:16;;;;;;;6.20;4.37;;;;;;;17.13;100.00;101439.75;5013283;28;20466;-73
2021/09/28 03:34:42;;;;;;;7.37;4.10;;;;;;;17.18;100.00;101445.09;5013237;28;20439;-73
2021/09/28 03:37:09;;;;;;;6.67;4.33;;;;;;;17.22;100.00;101450.69;5014557;28;20444;-73
2021/09/28 03:39:37;;;;;;;6.67;3.63;;;;;;;17.21;100.00;101447.16;5013238;28;20440;-72
2021/09/28 03:42:04;;;;;;;8.23;2.83;;;;;;;17.21;100.00;101446.34;5013095;28;20491;-72
2021/09/28 03:44:30;;;;;;;6.70;3.50;;;;;;;17.19;100.00;101443.94;5013218;28;20447;-73
2021/09/28 03:46:56;;;;;;;4.07;2.80;;;;;;;17.21;100.00;101452.63;5013124;28;20502;-72
2021/09/28 03:49:23;;;;;;;7.03;3.20;;;;;;;17.15;100.00;101451.19;5013170;28;20482;-73
2021/09/28 03:51:49;;;;;;;8.47;3.70;;;;;;;17.21;100.00;101465.53;5013008;28;20459;-72
2021/09/28 03:54:16;;;;;;;5.37;3.27;;;;;;;17.15;100.00;101470.38;5013137;28;20455;-72
2021/09/28 03:56:43;;;;;;;5.97;3.80;;;;;;;17.10;100.00;101468.59;5013036;28;20451;-73
2021/09/28 03:59:10;;;;;;;8.13;2.70;;;;;;;17.06;100.00;101467.63;5013115;28;20448;-72
2021/09/28 04:01:36;;;;;;;16.17;3.63;;;;;;;16.94;100.00;101477.63;5012555;28;20498;-72
2021/09/28 04:04:03;;;;;;;5.13;3.20;;;;;;;16.81;100.00;101471.97;5013033;28;20444;-73
2021/09/28 04:06:29;;;;;;;8.43;2.47;;;;;;;16.78;100.00;101471.84;5012963;28;20444;-73
2021/09/28 04:08:56;;;;;;;4.07;2.30;;;;;;;16.73;100.00;101475.50;5012961;28;20440;-73
2021/09/28 04:11:22;;;;;;;2.53;2.13;;;;;;;16.69;100.00;101473.69;5012956;28;20468;-73
2021/09/28 04:13:50;;;;;;;3.63;2.20;;;;;;;16.65;100.00;101479.03;5013218;28;20440;-73
2021/09/28 04:16:17;;;;;;;3.17;1.90;;;;;;;16.64;100.00;101480.97;5016164;28;20877;-73
2021/09/28 04:18:45;;;;;;;3.83;1.47;;;;;;;16.59;100.00;101488.50;5016418;28;20453;-73
2021/09/28 04:21:11;;;;;;;2.50;1.40;;;;;;;16.52;100.00;101490.91;5015815;28;20834;-74
2021/09/28 04:23:38;;;;;;;2.70;1.60;;;;;;;16.52;100.00;101479.97;5016341;28;20468;-73
2021/09/28 04:26:05;;;;;;;2.97;1.57;;;;;;;16.50;100.00;101487.69;5016386;28;20440;-73
2021/09/28 04:28:31;;;;;;;4.03;1.63;;;;;;;16.43;100.00;101482.69;5015990;28;20444;-72
2021/09/28 04:30:59;;;;;;;2.30;1.30;;;;;;;16.37;100.00;101489.41;5016242;28;20452;-72
2021/09/28 04:33:26;;;;;;;3.50;1.80;;;;;;;16.38;100.00;101502.78;5015863;28;20967;-72
2021/09/28 04:35:52;;;;;;;2.57;1.40;;;;;;;16.36;100.00;101513.22;5016060;28;20452;-72
2021/09/28 04:38:18;;;;;;;4.57;1.33;;;;;;;16.33;100.00;101505.63;5016140;28;20448;-73
2021/09/28 04:40:45;;;;;;;2.70;1.30;;;;;;;16.27;100.00;101515.13;5016079;28;20471;-73
2021/09/28 04:43:11;;;;;;;1.70;1.50;;;;;;;16.25;100.00;101524.78;5015829;28;20488;-73
2021/09/28 04:45:38;;;;;;;2.00;1.37;;;;;;;16.21;100.00;101521.88;5015796;28;20460;-73
2021/09/28 04:48:06;;;;;;;2.40;1.93;;;;;;;16.13;100.00;101528.91;5015953;28;20451;-73
2021/09/28 04:50:32;;;;;;;2.10;1.40;;;;;;;16.07;100.00;101524.72;5015853;28;20432;-73
2021/09/28 04:52:58;;;;;;;1.30;1.00;;;;;;;16.08;100.00;101537.25;5015800;28;20531;-72
2021/09/28 04:55:25;;;;;;;1.07;0.97;;;;;;;16.06;100.00;101538.66;5015594;28;20938;-73
2021/09/28 04:57:51;;;;;;;2.40;1.33;;;;;;;16.07;100.00;101540.28;5015870;28;20503;-74
2021/09/28 05:00:18;;;;;;;1.67;1.20;;;;;;;16.06;100.00;101546.88;5015771;28;20444;-72
2021/09/28 05:02:45;;;;;;;1.10;1.00;;;;;;;16.15;100.00;101553.19;5015521;28;20487;-72
2021/09/28 05:05:13;;;;;;;3.10;1.20;;;;;;;16.16;100.00;101557.56;5015471;28;20479;-73
2021/09/28 05:07:39;;;;;;;1.77;1.00;;;;;;;16.21;100.00;101560.16;5015309;28;20444;-73
2021/09/28 05:10:06;;;;;;;2.80;1.53;;;;;;;16.15;100.00;101570.38;5015273;28;20459;-72
2021/09/28 05:12:34;;;;;;;1.97;1.10;;;;;;;16.21;100.00;101575.75;5015309;28;20482;-72
2021/09/28 05:15:01;;;;;;;2.90;1.30;;;;;;;16.24;100.00;101575.91;5015439;28;20451;-73
2021/09/28 05:17:27;;;;;;;1.23;0.90;;;;;;;16.20;100.00;101580.38;5015413;28;20452;-72
2021/09/28 05:19:54;;;;;;;1.30;0.90;;;;;;;16.21;100.00;101575.75;5015342;28;20444;-73
2021/09/28 05:22:21;;;;;;;1.80;1.47;;;;;;;16.18;100.00;101577.16;5014763;28;20997;-73
2021/09/28 05:24:48;;;;;;;2.93;0.97;;;;;;;16.21;100.00;101579.28;5015059;28;20443;-73
2021/09/28 05:27:15;;;;;;;1.10;1.00;;;;;;;16.22;100.00;101586.34;5014270;28;20467;-73
2021/09/28 05:29:41;;;;;;;2.67;1.13;;;;;;;16.23;100.00;101585.22;5014827;28;21032;-73
2021/09/28 05:32:09;;;;;;;5.63;1.83;;;;;;;16.23;100.00;101578.97;5015116;28;20467;-73
2021/09/28 05:34:35;;;;;;;3.70;1.40;;;;;;;16.24;100.00;101586.81;5015262;28;20479;-72
2021/09/28 05:37:02;;;;;;;5.27;1.40;;;;;;;16.27;100.00;101594.41;5014993;28;20448;-72
2021/09/28 05:39:29;;;;;;;2.27;1.10;;;;;;;16.29;100.00;101599.56;5014954;28;20499;-71
2021/09/28 05:41:56;;;;;;;1.50;1.40;;;;;;;16.21;100.00;101601.16;5014807;28;20876;-72
2021/09/28 05:44:22;;;;;;;1.13;1.03;;;;;;;16.27;100.00;101594.41;5014873;28;20447;-71
2021/09/28 05:46:49;;;;;;;1.77;1.37;;;;;;;16.38;100.00;101606.69;5014834;28;20506;-71
2021/09/28 05:49:15;;;;;;;2.73;2.50;;;;;;;16.40;100.00;101603.63;5014554;28;20448;-71
2021/09/28 05:51:49;;;;;;;1.10;0.70;;;;;;;16.45;100.00;101608.97;5014668;28;20460;-71
2021/09/28 05:54:18;;;;;;;2.70;1.10;;;;;;;16.37;100.00;101607.81;5014750;28;20455;-71
2021/09/28 05:56:46;;;;;;;2.80;1.00;;;;;;;16.26;100.00;101608.41;5014595;28;20454;-71
2021/09/28 05:59:12;;;;;;;2.90;0.80;;;;;;;16.27;100.00;101605.34;5014593;28;20822;-71
2021/09/28 06:01:39;;;;;;;1.70;0.97;;;;;;;16.21;100.00;101614.81;5014451;28;20460;-71
2021/09/28 06:04:05;;;;;;;1.03;0.80;;;;;;;16.15;100.00;101619.59;5014482;28;20487;-71
2021/09/28 06:06:32;;;;;;;2.47;1.13;;;;;;;16.14;100.00;101630.84;5014484;28;20843;-72
2021/09/28 06:08:59;;;;;;;0.87;0.60;;;;;;;16.03;100.00;101632.25;5014471;28;20487;-72
2021/09/28 06:11:25;;;;;;;1.10;1.00;;;;;;;16.04;100.00;101623.72;5014009;28;20982;-72
2021/09/28 06:13:53;;;;;;;1.17;0.60;;;;;;;16.05;100.00;101630.78;5014284;28;20436;-72
2021/09/28 06:16:20;;;;;;;1.13;0.90;;;;;;;16.00;100.00;101630.13;5014035;28;20993;-72
2021/09/28 06:18:46;;;;;;;9.17;1.40;;;;;;;15.94;100.00;101634.91;5013898;28;20854;-72
2021/09/28 06:21:13;;;;;;;2.20;0.60;;;;;;;15.98;100.00;101635.06;5014001;28;20452;-72
2021/09/28 06:23:40;;;;;;;1.07;0.87;;;;;;;15.99;100.00;101631.25;5013811;28;20464;-71
2021/09/28 06:26:08;;;;;;;2.30;1.03;;;;;;;15.97;100.00;101641.66;5014147;28;20480;-71
2021/09/28 06:28:35;;;;;;;0.93;0.80;;;;;;;16.00;100.00;101633.66;5014073;28;20448;-71
2021/09/28 06:31:04;;;;;;;1.10;1.00;;;;;;;15.99;100.00;101642.97;5013896;28;20475;-71
2021/09/28 06:33:30;;;;;;;0.97;0.60;;;;;;;16.01;100.00;101642.66;5013720;28;20444;-71
2021/09/28 06:35:56;;;;;;;2.80;1.00;;;;;;;16.09;100.00;101639.19;5013939;28;20451;-72
2021/09/28 06:38:23;;;;;;;1.00;0.90;;;;;;;16.15;100.00;101643.38;5013531;28;20453;-70
2021/09/28 06:40:49;;;;;;;1.23;0.90;;;;;;;16.21;100.00;101644.09;5013783;28;20450;-72
2021/09/28 06:43:16;;;;;;;7.93;1.10;;;;;;;16.27;100.00;101643.63;5013441;28;21005;-74
2021/09/28 06:45:42;;;;;;;2.93;0.80;;;;;;;16.34;100.00;101649.47;5013845;28;20443;-72
2021/09/28 06:48:10;;;;;;;0.60;0.60;;;;;;;16.50;100.00;101651.78;5013838;28;20862;-70
2021/09/28 06:50:36;;;;;;;0.63;0.53;;;;;;;16.59;100.00;101656.16;5013440;28;20447;-70
2021/09/28 06:53:03;;;;;;;8.10;1.87;;;;;;;16.61;100.00;101664.06;5013638;28;20463;-70
2021/09/28 06:55:29;;;;;;;2.73;0.70;;;;;;;16.59;100.00;101669.84;5013676;28;20448;-72
2021/09/28 06:57:56;;;;;;;3.33;0.80;;;;;;;16.62;100.00;101666.50;5013666;28;20444;-71
2021/09/28 07:00:22;;;;;;;0.70;0.60;;;;;;;16.52;100.00;101666.78;5013573;28;20498;-70
2021/09/28 07:02:49;;;;;;;5.70;1.13;;;;;;;16.45;100.00;101665.59;5013442;28;20550;-71
2021/09/28 07:05:17;;;;;;;6.67;1.30;;;;;;;16.49;100.00;101669.31;5013593;28;20821;-70
2021/09/28 07:07:44;;;;;;;0.97;0.70;;;;;;;16.53;99.84;101675.78;5013556;28;20571;-70
2021/09/28 07:10:11;;;;;;;2.40;1.77;;;;;;;16.58;100.00;101670.97;5013553;28;20443;-70
2021/09/28 07:12:37;;;;;;;2.93;0.80;;;;;;;16.66;100.00;101677.59;5013396;28;20468;-70
2021/09/28 07:15:04;;;;;;;1.67;1.00;;;;;;;16.67;100.00;101679.22;5013177;28;20937;-70
2021/09/28 07:17:31;;;;;;;4.67;1.70;;;;;;;16.61;99.44;101696.91;5013524;28;20487;-70
2021/09/28 07:19:57;;;;;;;1.60;0.90;;;;;;;16.61;99.06;101697.72;5013421;28;20826;-69
2021/09/28 07:22:26;;;;;;;1.10;0.80;;;;;;;16.62;99.55;101701.25;5012934;28;20487;-70
2021/09/28 07:24:53;;;;;;;4.00;1.13;;;;;;;16.59;99.33;101710.06;5013272;28;20452;-70
2021/09/28 07:27:19;;;;;;;1.00;0.80;;;;;;;16.50;99.99;101703.75;5013382;28;20444;-70
2021/09/28 07:29:46;;;;;;;2.97;0.93;;;;;;;16.49;100.00;101713.09;5013314;28;20444;-70
2021/09/28 07:32:13;;;;;;;6.47;0.83;;;;;;;16.37;100.00;101714.44;5013251;28;20486;-70
2021/09/28 07:34:40;;;;;;;1.37;1.20;;;;;;;16.35;100.00;101716.69;5013092;28;20945;-70
2021/09/28 07:37:06;;;;;;;1.63;0.77;;;;;;;16.33;100.00;101724.41;5013423;28;20448;-70
2021/09/28 07:39:34;;;;;;;2.20;0.73;;;;;;;16.33;100.00;101727.13;5013332;28;20447;-71
2021/09/28 07:42:01;;;;;;;4.77;1.33;;;;;;;16.23;100.00;101729.31;5013180;28;20464;-72
2021/09/28 07:44:28;;;;;;;3.07;1.80;;;;;;;16.03;100.00;101725.16;5013050;28;20484;-71
2021/09/28 07:46:54;;;;;;;1.70;1.10;;;;;;;15.94;100.00;101722.38;5012871;28;20933;-71
2021/09/28 07:49:21;;;;;;;6.77;1.40;;;;;;;15.93;100.00;101728.13;5014410;28;20490;-71
2021/09/28 07:51:47;;;;;;;8.23;1.43;;;;;;;15.93;100.00;101730.84;5016862;28;20467;-71
2021/09/28 07:54:13;;;;;;;1.63;1.03;;;;;;;15.94;100.00;101736.03;5016930;28;20435;-71
2021/09/28 07:56:42;;;;;;;11.13;1.93;;;;;;;15.84;100.00;101744.44;5016823;28;20847;-71
2021/09/28 07:59:10;;;;;;;1.90;1.50;;;;;;;15.81;100.00;101745.88;5016703;28;20809;-71
2021/09/28 08:01:37;;;;;;;1.87;1.03;;;;;;;15.75;100.00;101736.16;5016522;28;20993;-71
2021/09/28 08:04:03;;;;;;;3.17;1.40;;;;;;;15.82;100.00;101735.75;5016657;28;20479;-71
2021/09/28 08:06:30;;;;;;;3.63;1.03;;;;;;;15.90;100.00;101745.97;5016753;28;20451;-71
2021/09/28 08:08:57;;;;;;;9.73;1.30;;;;;;;15.86;100.00;101743.03;5016726;28;20447;-71
2021/09/28 08:11:23;;;;;;;1.80;1.27;;;;;;;15.92;100.00;101748.38;5016320;28;20467;-71
2021/09/28 08:13:51;;;;;;;1.27;1.13;;;;;;;15.96;100.00;101757.56;5016649;28;20447;-71
2021/09/28 08:16:18;;;;;;;1.73;1.20;;;;;;;15.88;100.00;101756.38;5016247;28;20937;-71
2021/09/28 08:18:44;;;;;;;2.70;1.20;;;;;;;15.73;100.00;101749.34;5016479;28;20513;-71
2021/09/28 08:21:11;;;;;;;3.20;1.10;;;;;;;15.76;100.00;101754.19;5016012;28;20856;-71
2021/09/28 08:23:37;;;;;;;3.27;1.10;;;;;;;15.83;100.00;101751.03;5016359;28;20476;-71
2021/09/28 08:31:29;;;;;;;2.83;0.97;;;;;;;15.84;100.00;101763.56;5015882;28;20942;-71
2021/09/28 08:33:56;;;;;;;1.70;1.30;;;;;;;15.91;100.00;101765.88;5015942;28;20498;-71
2021/09/28 08:36:22;;;;;;;2.10;1.47;;;;;;;15.96;100.00;101769.31;5016243;28;20443;-71
2021/09/28 08:38:48;;;;;;;1.47;1.23;;;;;;;15.92;100.00;101772.97;5015652;28;20962;-71
2021/09/28 08:41:15;;;;;;;5.90;1.70;;;;;;;16.10;100.00;101774.72;5016059;28;20498;-71
2021/09/28 08:43:42;;;;;;;10.80;1.67;;;;;;;16.22;100.00;101780.47;5016026;28;20511;-71
2021/09/28 08:46:08;;;;;;;3.87;1.63;;;;;;;16.27;100.00;101785.00;5016046;28;20862;-71
2021/09/28 08:48:36;;;;;;;1.83;1.40;;;;;;;16.35;100.00;101787.81;5016012;28;20451;-71
2021/09/28 08:51:02;;;;;;;4.50;1.87;;;;;;;16.46;100.00;101793.00;5015843;28;20447;-71
2021/09/28 08:53:29;;;;;;;1.63;1.20;;;;;;;16.47;100.00;101791.88;5015867;28;20436;-71
2021/09/28 08:55:55;;;;;;;6.13;2.13;;;;;;;16.44;100.00;101787.88;5015614;28;20464;-71
2021/09/28 08:58:23;;;;;;;6.40;1.97;;;;;;;16.58;100.00;101791.34;5015466;28;20942;-71
2021/09/28 09:00:52;;;;;;;2.17;1.80;;;;;;;16.56;100.00;101787.31;5015317;28;20440;-71
2021/09/28 09:03:27;;;;;;;4.20;1.97;;;;;;;16.46;100.00;101793.81;5015547;28;20546;-75
2021/09/28 09:05:56;;;;;;;6.13;1.33;;;;;;;16.50;100.00;101789.34;5015704;28;20435;-71
2021/09/28 09:08:27;;;;;;;5.40;1.60;;;;;;;16.48;100.00;101786.13;5015642;28;20444;-71
2021/09/28 09:11:03;;;;;;;9.30;1.60;;;;;;;16.51;100.00;101784.69;5015499;28;20448;-71
2021/09/28 09:13:35;;;;;;;2.57;1.20;;;;;;;16.57;100.00;101784.25;5015493;28;20432;-71
2021/09/28 09:16:02;;;;;;;6.50;2.20;;;;;;;16.56;100.00;101782.66;5015459;28;20440;-71
2021/09/28 09:18:28;;;;;;;7.53;1.93;;;;;;;16.51;100.00;101785.50;5015073;28;20439;-71
2021/09/28 09:20:59;;;;;;;4.10;2.07;;;;;;;16.53;100.00;101788.72;5015366;28;20446;-71
2021/09/28 09:23:28;;;;;;;6.63;2.33;;;;;;;16.47;100.00;101784.50;5014882;28;21005;-71
2021/09/28 09:26:04;;;;;;;2.73;1.90;;;;;;;16.53;100.00;101779.72;5014944;28;20984;-71
2021/09/28 09:28:33;;;;;;;2.10;1.83;;;;;;;16.59;100.00;101786.66;5015137;28;20448;-71
2021/09/28 09:31:08;;;;;;;2.37;1.97;;;;;;;16.68;100.00;101790.25;5015143;28;20452;-71
2021/09/28 09:33:35;;;;;;;3.80;2.10;;;;;;;16.73;100.00;101792.91;5015094;28;20451;-71
2021/09/28 09:36:03;;;;;;;7.60;2.07;;;;;;;16.65;100.00;101791.72;5014815;28;20443;-71
2021/09/28 09:38:30;;;;;;;2.97;1.47;;;;;;;16.79;100.00;101791.66;5014945;28;20452;-71
2021/09/28 09:40:56;;;;;;;10.20;1.90;;;;;;;16.88;100.00;101792.50;5014684;28;20459;-71
2021/09/28 09:43:30;;;;;;;2.10;1.90;;;;;;;16.95;100.00;101802.19;5014748;28;20488;-71
2021/09/28 09:46:10;;;;;;;3.90;2.17;;;;;;;16.93;100.00;101807.19;5014966;28;20432;-71
2021/09/28 09:48:39;;;;;;;6.60;1.47;;;;;;;16.95;100.00;101794.00;5014886;28;20428;-71
2021/09/28 09:51:09;;;;;;;5.70;1.90;;;;;;;16.94;100.00;101808.81;5014369;28;20867;-71
2021/09/28 09:53:38;;;;;;;7.30;2.20;;;;;;;16.87;99.12;101804.59;5014739;28;20486;-72
2021/09/28 09:56:05;;;;;;;3.13;1.53;;;;;;;16.82;97.67;101802.00;5014674;28;20444;-71
2021/09/28 09:58:31;;;;;;;2.00;1.27;;;;;;;16.73;98.04;101798.38;5014547;28;20794;-69
2021/09/28 10:00:58;;;;;;;2.07;1.30;;;;;;;16.72;97.76;101799.50;5014200;28;20478;-69
2021/09/28 10:03:25;;;;;;;3.73;2.10;;;;;;;16.83;98.15;101795.38;5014413;28;20495;-69
2021/09/28 10:05:51;;;;;;;4.13;1.33;;;;;;;16.84;97.17;101802.47;5014546;28;20439;-69
2021/09/28 10:08:19;;;;;;;8.80;1.60;;;;;;;16.81;97.10;101797.63;5014464;28;20462;-69
2021/09/28 10:10:56;;;;;;;4.60;1.73;;;;;;;16.81;97.17;101807.75;5014436;28;20440;-69
2021/09/28 10:13:48;;;;;;;7.50;1.90;;;;;;;16.81;97.83;101800.34;5013711;28;20464;-69
2021/09/28 10:16:44;;;;;;;7.57;1.20;;;;;;;16.90;98.65;101801.22;5014470;28;20447;-69
2021/09/28 10:19:40;;;;;;;3.13;1.30;;;;;;;16.90;99.20;101797.66;5014443;28;20429;-69
2021/09/28 10:22:07;;;;;;;3.57;1.13;;;;;;;16.98;100.00;101798.84;5013844;28;20538;-69
2021/09/28 10:24:36;;;;;;;3.57;2.27;;;;;;;17.01;100.00;101793.56;5014059;28;20519;-72
2021/09/28 10:27:31;;;;;;;5.07;1.47;;;;;;;17.04;98.87;101787.44;5014017;28;20444;-72
2021/09/28 10:29:58;;;;;;;3.87;1.77;;;;;;;17.09;99.76;101789.25;5014174;28;20790;-71
2021/09/28 10:32:49;;;;;;;7.20;4.37;;;;;;;17.21;99.24;101803.13;5014003;28;20468;-71
2021/09/28 10:35:18;;;;;;;4.73;1.60;;;;;;;17.35;99.28;101792.91;5014059;28;20471;-71
2021/09/28 10:37:49;;;;;;;1.80;1.40;;;;;;;17.32;96.57;101796.25;5013974;28;20444;-72
2021/09/28 10:40:48;;;;;;;3.70;2.40;;;;;;;17.23;94.90;101800.91;5014050;28;20464;-71
2021/09/28 10:43:35;;;;;;;3.90;1.60;;;;;;;17.01;95.49;101801.75;5013894;28;20577;-71
2021/09/28 10:46:04;;;;;;;5.40;1.87;;;;;;;17.04;97.11;101806.59;5010291;28;21004;-71
2021/09/28 10:48:38;;;;;;;3.83;1.47;;;;;;;17.09;96.86;101805.69;5013775;28;20478;-72
2021/09/28 10:51:14;;;;;;;7.23;2.00;;;;;;;17.18;96.98;101801.03;5013719;28;20431;-71
2021/09/28 10:53:43;;;;;;;5.03;1.40;;;;;;;17.27;95.67;101803.81;5013724;28;20447;-71
2021/09/28 10:56:13;;;;;;;11.63;2.37;;;;;;;17.34;95.57;101799.47;5013227;28;20933;-71
2021/09/28 10:58:57;;;;;;;9.50;1.77;;;;;;;17.40;91.96;101817.41;5013620;28;20440;-71
2021/09/28 11:01:26;;;;;;;11.93;1.70;;;;;;;17.41;91.37;101804.50;5013418;28;20521;-71
2021/09/28 11:03:58;;;;;;;8.77;2.27;;;;;;;17.52;91.24;101811.28;5013116;28;20491;-71
2021/09/28 11:06:44;;;;;;;3.83;2.00;;;;;;;17.59;91.16;101808.09;5013004;28;20431;-71
2021/09/28 11:09:11;;;;;;;5.43;1.60;;;;;;;17.74;90.70;101809.59;5013003;28;20448;-72
2021/09/28 11:11:40;;;;;;;3.60;1.27;;;;;;;17.90;90.84;101806.09;5012799;28;20471;-71
2021/09/28 11:14:08;;;;;;;4.17;2.03;;;;;;;18.03;88.65;101807.09;5012846;28;20479;-71
2021/09/28 11:16:40;;;;;;;2.33;1.50;;;;;;;18.19;87.79;101823.84;5012823;28;20451;-71
2021/09/28 11:19:06;;;;;;;2.80;2.20;;;;;;;18.18;86.65;101813.22;5012625;28;20467;-71
2021/09/28 11:21:37;;;;;;;4.40;1.57;;;;;;;18.32;86.41;101814.66;5012212;28;21018;-71
2021/09/28 11:24:03;;;;;;;3.60;1.20;;;;;;;18.37;83.73;101811.78;5015174;28;20510;-71
2021/09/28 11:26:31;;;;;;;2.00;0.90;;;;;;;18.51;83.75;101810.78;5018282;28;21074;-71